Time;durP1;ratioP1;P1;durP2;ratioP2;P2;SDS_P1;SDS_P2;PMS_P1;PMS_P2;Temp;Humidity;BMP_temperature;BMP_pressure;BME280_temperature;BME280_humidity;BME280_pressure;Samples;Min_cycle;Max_cycle;Signal;HPM_P1;HPM_P2
2021/12/30 00:01:21;;;;;;;33.42;6.35;;;;;;;;;;4993087;28;20045;-81
2021/12/30 00:03:58;;;;;;;34.80;7.13;;;;;;;;;;4989653;28;20053;-81
2021/12/30 00:06:26;;;;;;;29.85;7.32;;;;;;;;;;4993128;28;20053;-81
2021/12/30 00:08:55;;;;;;;36.33;8.07;;;;;;;;;;4976056;28;20038;-81
2021/12/30 00:11:30;;;;;;;29.65;8.77;;;;;;;;;;4962249;28;20120;-85
2021/12/30 00:14:00;;;;;;;36.65;9.80;;;;;;;;;;4993273;28;20130;-84
2021/12/30 00:16:28;;;;;;;38.90;9.00;;;;;;;;;;4993110;28;20159;-79
2021/12/30 00:19:00;;;;;;;30.92;8.30;;;;;;;;;;4993009;28;20050;-80
2021/12/30 00:21:37;;;;;;;27.92;9.43;;;;;;;;;;4976542;28;20049;-80
2021/12/30 00:24:09;;;;;;;34.65;10.05;;;;;;;;;;4993401;28;20039;-84
2021/12/30 00:26:38;;;;;;;30.92;9.98;;;;;;;;;;4978136;28;20565;-83
2021/12/30 00:29:05;;;;;;;35.33;10.23;;;;;;;;;;4979591;28;20500;-85
2021/12/30 00:31:34;;;;;;;29.10;8.85;;;;;;;;;;4977001;28;20121;-81
2021/12/30 00:34:09;;;;;;;35.35;9.40;;;;;;;;;;4996358;28;20394;-84
2021/12/30 00:36:41;;;;;;;28.60;8.15;;;;;;;;;;4996363;28;20054;-81
2021/12/30 00:39:09;;;;;;;34.10;8.38;;;;;;;;;;4978983;28;20137;-84
2021/12/30 00:41:38;;;;;;;29.10;8.13;;;;;;;;;;4984476;28;20043;-78
2021/12/30 00:44:10;;;;;;;25.40;7.75;;;;;;;;;;4977292;28;20486;-83
2021/12/30 00:46:38;;;;;;;;;;;;;;;;;;4978072;28;20047;-82
2021/12/30 00:49:09;;;;;;;33.90;8.32;;;;;;;;;;4977243;28;20338;-84
2021/12/30 00:51:41;;;;;;;28.63;7.95;;;;;;;;;;4977146;28;20047;-77
2021/12/30 00:54:09;;;;;;;26.58;7.82;;;;;;;;;;4959750;28;20410;-79
2021/12/30 00:56:39;;;;;;;28.77;7.78;;;;;;;;;;4959225;28;20042;-77
2021/12/30 00:59:07;;;;;;;31.13;8.73;;;;;;;;;;4976796;28;20529;-77
2021/12/30 01:01:35;;;;;;;28.10;8.43;;;;;;;;;;4976967;28;20549;-78
2021/12/30 01:04:04;;;;;;;29.63;9.70;;;;;;;;;;4976594;28;20043;-83
2021/12/30 01:06:35;;;;;;;29.80;9.82;;;;;;;;;;4960367;28;20034;-84
2021/12/30 01:09:04;;;;;;;35.78;10.98;;;;;;;;;;4976425;28;20047;-83
2021/12/30 01:11:33;;;;;;;33.75;10.82;;;;;;;;;;4959611;28;20590;-77
2021/12/30 01:14:14;;;;;;;32.03;10.32;;;;;;;;;;4976704;28;20043;-84
2021/12/30 01:16:49;;;;;;;31.70;9.32;;;;;;;;;;4976607;28;20125;-77
2021/12/30 01:21:51;;;;;;;27.98;9.77;;;;;;;;;;4976394;28;20498;-84
2021/12/30 01:24:20;;;;;;;26.08;9.18;;;;;;;;;;4976783;28;20047;-80
2021/12/30 01:26:49;;;;;;;32.90;10.70;;;;;;;;;;4976587;28;20046;-79
2021/12/30 01:29:18;;;;;;;30.42;10.88;;;;;;;;;;4976371;28;20438;-83
2021/12/30 01:31:46;;;;;;;35.75;11.60;;;;;;;;;;4976384;28;20047;-84
2021/12/30 01:34:21;;;;;;;35.47;11.88;;;;;;;;;;4959409;28;20106;-84
2021/12/30 01:36:50;;;;;;;40.45;13.13;;;;;;;;;;4976410;28;20054;-77
2021/12/30 01:39:20;;;;;;;35.78;14.50;;;;;;;;;;4975988;28;20035;-83
2021/12/30 01:41:51;;;;;;;43.90;17.15;;;;;;;;;;4958564;28;20055;-83
2021/12/30 01:44:21;;;;;;;50.38;18.00;;;;;;;;;;4976080;28;20073;-84
2021/12/30 01:46:49;;;;;;;53.10;22.17;;;;;;;;;;4959414;28;20073;-83
2021/12/30 01:49:21;;;;;;;62.88;23.63;;;;;;;;;;4959563;28;20042;-83
2021/12/30 01:51:54;;;;;;;54.90;23.30;;;;;;;;;;4959682;28;20043;-78
2021/12/30 01:54:22;;;;;;;52.13;23.08;;;;;;;;;;4958525;28;20070;-77
2021/12/30 01:56:51;;;;;;;65.28;27.10;;;;;;;;;;4975745;28;20518;-84
2021/12/30 01:59:21;;;;;;;67.28;25.85;;;;;;;;;;4959002;28;20035;-83
2021/12/30 02:01:56;;;;;;;66.13;28.40;;;;;;;;;;4958698;28;20039;-79
2021/12/30 02:04:34;;;;;;;68.25;28.70;;;;;;;;;;4951893;28;20055;-79
2021/12/30 02:07:03;;;;;;;75.53;28.48;;;;;;;;;;4975701;28;20381;-79
2021/12/30 02:09:31;;;;;;;65.50;27.67;;;;;;;;;;4958228;28;20447;-77
2021/12/30 02:12:00;;;;;;;69.47;26.50;;;;;;;;;;4975925;28;20042;-84
2021/12/30 02:14:34;;;;;;;62.60;27.45;;;;;;;;;;4975948;28;20043;-84
2021/12/30 02:17:03;;;;;;;68.35;27.42;;;;;;;;;;4975433;28;20047;-77
2021/12/30 02:19:40;;;;;;;72.82;26.75;;;;;;;;;;4958161;28;20053;-84
2021/12/30 02:22:07;;;;;;;65.20;26.27;;;;;;;;;;4975405;28;20057;-84
2021/12/30 02:24:44;;;;;;;67.82;26.13;;;;;;;;;;4975209;28;20042;-84
2021/12/30 02:27:13;;;;;;;59.63;25.15;;;;;;;;;;4975251;28;20054;-77
2021/12/30 02:29:44;;;;;;;70.18;24.17;;;;;;;;;;4974761;28;20043;-84
2021/12/30 02:32:12;;;;;;;52.88;23.38;;;;;;;;;;4958464;28;20047;-85
2021/12/30 02:34:43;;;;;;;53.47;22.67;;;;;;;;;;4957649;28;20145;-79
2021/12/30 02:37:15;;;;;;;48.58;20.48;;;;;;;;;;4942195;28;20545;-83
2021/12/30 02:39:48;;;;;;;39.17;18.58;;;;;;;;;;4980167;28;20045;-85
2021/12/30 02:42:16;;;;;;;47.92;19.65;;;;;;;;;;4985392;28;20139;-79
2021/12/30 02:44:44;;;;;;;53.67;18.48;;;;;;;;;;4975070;28;20043;-79
2021/12/30 02:47:14;;;;;;;39.75;15.82;;;;;;;;;;4977641;28;20508;-78
2021/12/30 02:49:42;;;;;;;40.00;15.05;;;;;;;;;;4976367;28;20089;-83
2021/12/30 02:52:11;;;;;;;38.90;14.40;;;;;;;;;;4994271;28;20141;-79
2021/12/30 02:54:41;;;;;;;31.77;12.30;;;;;;;;;;4977020;28;20050;-83
2021/12/30 02:57:09;;;;;;;36.22;11.43;;;;;;;;;;4994094;28;20046;-85
2021/12/30 02:59:37;;;;;;;27.65;9.75;;;;;;;;;;4976888;28;20049;-77
2021/12/30 03:02:07;;;;;;;33.63;10.32;;;;;;;;;;4993250;28;20113;-83
2021/12/30 03:04:36;;;;;;;32.05;10.38;;;;;;;;;;4994043;28;20066;-82
2021/12/30 03:07:06;;;;;;;29.85;10.88;;;;;;;;;;4993737;28;20046;-83
2021/12/30 03:09:34;;;;;;;33.08;11.20;;;;;;;;;;4976416;28;20046;-79
2021/12/30 03:12:02;;;;;;;31.02;10.65;;;;;;;;;;4993972;28;20042;-78
2021/12/30 03:14:30;;;;;;;32.67;10.57;;;;;;;;;;4993875;28;20048;-83
2021/12/30 03:17:00;;;;;;;29.55;10.40;;;;;;;;;;4961174;28;20413;-77
2021/12/30 03:19:30;;;;;;;25.40;8.77;;;;;;;;;;4993662;28;20125;-84
2021/12/30 03:22:01;;;;;;;28.55;10.73;;;;;;;;;;4993630;28;20043;-78
2021/12/30 03:24:29;;;;;;;24.95;9.07;;;;;;;;;;4993420;28;20069;-83
2021/12/30 03:26:58;;;;;;;25.52;9.77;;;;;;;;;;4993756;28;20537;-78
2021/12/30 03:29:26;;;;;;;24.00;10.07;;;;;;;;;;4976431;28;20042;-83
2021/12/30 03:32:02;;;;;;;26.52;10.80;;;;;;;;;;4993576;28;20054;-77
2021/12/30 03:34:30;;;;;;;29.45;9.43;;;;;;;;;;4993321;28;20055;-85
2021/12/30 03:37:00;;;;;;;30.05;9.88;;;;;;;;;;4993663;28;20437;-83
2021/12/30 03:39:29;;;;;;;26.48;8.57;;;;;;;;;;4993610;28;20043;-77
2021/12/30 03:41:59;;;;;;;27.52;7.80;;;;;;;;;;4993846;28;20046;-77
2021/12/30 03:44:29;;;;;;;26.27;7.22;;;;;;;;;;4993140;28;20066;-78
2021/12/30 03:46:56;;;;;;;25.27;6.60;;;;;;;;;;4993906;28;20038;-77
2021/12/30 03:49:25;;;;;;;16.20;5.80;;;;;;;;;;4976650;28;20459;-85
2021/12/30 03:51:54;;;;;;;20.42;5.85;;;;;;;;;;4976731;28;20046;-77
2021/12/30 03:54:21;;;;;;;22.98;5.43;;;;;;;;;;4993531;28;20042;-79
2021/12/30 03:56:52;;;;;;;18.52;5.00;;;;;;;;;;4976084;28;20051;-77
2021/12/30 03:59:22;;;;;;;15.48;5.00;;;;;;;;;;4993745;28;20035;-83
2021/12/30 04:01:51;;;;;;;24.40;5.28;;;;;;;;;;4978921;28;20048;-83
2021/12/30 04:04:19;;;;;;;19.52;4.20;;;;;;;;;;4980152;28;20046;-79
2021/12/30 04:06:46;;;;;;;20.55;4.45;;;;;;;;;;4980151;28;20042;-83
2021/12/30 04:09:14;;;;;;;12.93;3.55;;;;;;;;;;4980080;28;20042;-79
2021/12/30 04:11:43;;;;;;;13.82;3.90;;;;;;;;;;4997428;28;20046;-82
2021/12/30 04:14:14;;;;;;;17.08;4.00;;;;;;;;;;4997250;28;20050;-79
2021/12/30 04:16:41;;;;;;;11.88;3.78;;;;;;;;;;4980041;28;20049;-85
2021/12/30 04:19:09;;;;;;;13.52;3.50;;;;;;;;;;4996929;28;20073;-85
2021/12/30 04:21:37;;;;;;;11.25;3.17;;;;;;;;;;4979616;28;20109;-83
2021/12/30 04:24:06;;;;;;;6.57;2.90;;;;;;;;;;4979437;28;20042;-79
2021/12/30 04:26:36;;;;;;;13.55;3.30;;;;;;;;;;4979975;28;20038;-83
2021/12/30 04:29:06;;;;;;;8.85;2.63;;;;;;;;;;4980323;28;20549;-85
2021/12/30 04:31:34;;;;;;;9.00;2.78;;;;;;;;;;4979852;28;20042;-78
2021/12/30 04:34:06;;;;;;;8.30;2.47;;;;;;;;;;4996559;28;20054;-77
2021/12/30 04:36:35;;;;;;;14.50;3.40;;;;;;;;;;4989467;28;20050;-85
2021/12/30 04:39:03;;;;;;;8.07;2.63;;;;;;;;;;4963294;28;20498;-78
2021/12/30 04:41:32;;;;;;;8.32;2.58;;;;;;;;;;4980064;28;20038;-84
2021/12/30 04:44:00;;;;;;;13.52;2.63;;;;;;;;;;4996707;28;20038;-85
2021/12/30 04:46:30;;;;;;;10.82;2.63;;;;;;;;;;4996594;28;20042;-82
2021/12/30 04:48:58;;;;;;;9.57;2.80;;;;;;;;;;4979431;28;20054;-79
2021/12/30 04:51:26;;;;;;;8.15;2.40;;;;;;;;;;4996519;28;20046;-77
2021/12/30 04:53:54;;;;;;;8.10;2.53;;;;;;;;;;4996224;28;20085;-85
2021/12/30 04:56:22;;;;;;;10.13;2.47;;;;;;;;;;4996510;28;20093;-79
2021/12/30 04:58:50;;;;;;;10.70;2.67;;;;;;;;;;4996259;28;20042;-82
2021/12/30 05:01:18;;;;;;;8.82;2.60;;;;;;;;;;4979003;28;20133;-79
2021/12/30 05:03:46;;;;;;;7.57;2.40;;;;;;;;;;4996285;28;20409;-78
2021/12/30 05:06:16;;;;;;;7.30;2.50;;;;;;;;;;4978965;28;20138;-83
2021/12/30 05:08:44;;;;;;;6.88;2.15;;;;;;;;;;4978723;28;20046;-83
2021/12/30 05:11:12;;;;;;;9.32;2.80;;;;;;;;;;4996173;28;20085;-80
2021/12/30 05:13:42;;;;;;;8.75;2.67;;;;;;;;;;4995147;28;20470;-77
2021/12/30 05:16:15;;;;;;;7.80;2.75;;;;;;;;;;4978711;28;20054;-77
2021/12/30 05:18:47;;;;;;;6.18;2.45;;;;;;;;;;4978464;28;20070;-82
2021/12/30 05:21:15;;;;;;;6.30;2.00;;;;;;;;;;4995919;28;20039;-82
2021/12/30 05:23:46;;;;;;;7.93;2.50;;;;;;;;;;4996419;28;20039;-78
2021/12/30 05:26:16;;;;;;;8.80;2.72;;;;;;;;;;4996067;28;20047;-84
2021/12/30 05:28:47;;;;;;;8.23;2.50;;;;;;;;;;4979785;28;20039;-77
2021/12/30 05:31:14;;;;;;;8.85;2.53;;;;;;;;;;4995711;28;20044;-77
2021/12/30 05:33:43;;;;;;;8.13;2.60;;;;;;;;;;4978405;28;20162;-78
2021/12/30 05:36:12;;;;;;;6.75;2.80;;;;;;;;;;4978420;28;20478;-78
2021/12/30 05:38:41;;;;;;;9.77;3.05;;;;;;;;;;4995449;28;20413;-83
2021/12/30 05:41:12;;;;;;;7.47;3.35;;;;;;;;;;4995718;28;20046;-83
2021/12/30 05:43:40;;;;;;;6.10;2.20;;;;;;;;;;4995723;28;20061;-76
2021/12/30 05:46:13;;;;;;;8.95;2.63;;;;;;;;;;4995700;28;20066;-83
2021/12/30 05:48:42;;;;;;;13.07;3.10;;;;;;;;;;4995433;28;20077;-85
2021/12/30 05:51:10;;;;;;;11.02;2.92;;;;;;;;;;4978207;28;20450;-85
2021/12/30 05:53:39;;;;;;;13.20;3.10;;;;;;;;;;4978593;28;20042;-84
2021/12/30 05:56:06;;;;;;;7.70;3.03;;;;;;;;;;4995224;28;20042;-77
2021/12/30 05:58:34;;;;;;;10.07;2.78;;;;;;;;;;4995059;28;20038;-82
2021/12/30 06:01:02;;;;;;;12.20;3.13;;;;;;;;;;4995496;28;20117;-78
2021/12/30 06:03:33;;;;;;;12.48;3.60;;;;;;;;;;4977730;28;20046;-79
2021/12/30 06:06:00;;;;;;;11.35;3.53;;;;;;;;;;4995267;28;20049;-85
2021/12/30 06:08:31;;;;;;;10.23;3.05;;;;;;;;;;4995176;28;20042;-78
2021/12/30 06:10:59;;;;;;;8.68;3.47;;;;;;;;;;4977183;28;20069;-77
2021/12/30 06:13:28;;;;;;;13.60;3.50;;;;;;;;;;4977935;28;20101;-77
2021/12/30 06:15:59;;;;;;;10.88;3.60;;;;;;;;;;4995329;28;20046;-77
2021/12/30 06:18:26;;;;;;;13.88;4.13;;;;;;;;;;4977649;28;20413;-77
2021/12/30 06:20:54;;;;;;;11.02;4.85;;;;;;;;;;4994501;28;20042;-78
2021/12/30 06:23:22;;;;;;;12.85;5.68;;;;;;;;;;4994688;28;20042;-81
2021/12/30 06:25:49;;;;;;;18.83;5.32;;;;;;;;;;4977579;28;20141;-75
2021/12/30 06:28:17;;;;;;;10.68;4.70;;;;;;;;;;4961700;28;20049;-81
2021/12/30 06:30:47;;;;;;;10.63;4.35;;;;;;;;;;4994506;28;20117;-78
2021/12/30 06:33:15;;;;;;;18.45;4.90;;;;;;;;;;4994258;28;20053;-78
2021/12/30 06:35:45;;;;;;;11.38;4.35;;;;;;;;;;4977445;28;20046;-82
2021/12/30 06:38:13;;;;;;;14.32;5.25;;;;;;;;;;4994693;28;20469;-81
2021/12/30 06:40:41;;;;;;;17.02;5.57;;;;;;;;;;4994277;28;20034;-79
2021/12/30 06:43:09;;;;;;;10.27;4.97;;;;;;;;;;4994563;28;20502;-82
2021/12/30 06:45:37;;;;;;;13.00;4.82;;;;;;;;;;4994225;28;20048;-82
2021/12/30 06:48:06;;;;;;;15.90;5.32;;;;;;;;;;4994136;28;20093;-78
2021/12/30 06:50:34;;;;;;;14.27;5.78;;;;;;;;;;4977186;28;20046;-82
2021/12/30 06:53:02;;;;;;;13.82;5.88;;;;;;;;;;4994342;28;20046;-82
2021/12/30 06:55:30;;;;;;;16.52;6.75;;;;;;;;;;4994099;28;20054;-80
2021/12/30 06:57:58;;;;;;;18.30;8.00;;;;;;;;;;4994150;28;20054;-82
2021/12/30 07:00:29;;;;;;;17.65;6.72;;;;;;;;;;4977708;28;20045;-79
2021/12/30 07:02:57;;;;;;;16.33;6.90;;;;;;;;;;4992978;28;20129;-79
2021/12/30 07:05:24;;;;;;;14.18;6.15;;;;;;;;;;4993776;28;20038;-79
2021/12/30 07:07:52;;;;;;;18.70;7.38;;;;;;;;;;4976996;28;20117;-78
2021/12/30 07:10:19;;;;;;;16.48;6.18;;;;;;;;;;4976097;28;20073;-77
2021/12/30 07:12:47;;;;;;;15.38;6.07;;;;;;;;;;4976709;28;20077;-78
2021/12/30 07:15:14;;;;;;;13.23;5.40;;;;;;;;;;4993833;28;20042;-79
2021/12/30 07:17:42;;;;;;;19.40;5.15;;;;;;;;;;4993605;28;20057;-78
2021/12/30 07:20:10;;;;;;;15.45;5.32;;;;;;;;;;4976608;28;20133;-76
2021/12/30 07:22:37;;;;;;;17.02;5.05;;;;;;;;;;4993576;28;20517;-78
2021/12/30 07:25:16;;;;;;;11.88;4.88;;;;;;;;;;4994093;28;20045;-78
2021/12/30 07:27:46;;;;;;;14.45;4.90;;;;;;;;;;4994198;28;20153;-81
2021/12/30 07:30:15;;;;;;;13.10;4.10;;;;;;;;;;4993621;28;20053;-80
2021/12/30 07:32:43;;;;;;;14.02;4.40;;;;;;;;;;4976236;28;20065;-80
2021/12/30 07:35:11;;;;;;;13.27;4.82;;;;;;;;;;4994382;28;20057;-75
2021/12/30 07:37:38;;;;;;;16.45;4.53;;;;;;;;;;5000397;28;20100;-77
2021/12/30 07:40:07;;;;;;;10.23;4.82;;;;;;;;;;4982655;28;20049;-81
2021/12/30 07:42:37;;;;;;;13.18;4.85;;;;;;;;;;4999745;28;20057;-79
2021/12/30 07:45:05;;;;;;;12.88;5.53;;;;;;;;;;4999445;28;20042;-81
2021/12/30 07:47:33;;;;;;;18.70;7.22;;;;;;;;;;5000401;28;20494;-75
2021/12/30 07:50:00;;;;;;;19.20;7.60;;;;;;;;;;4999784;28;20046;-80
2021/12/30 07:52:30;;;;;;;20.63;7.22;;;;;;;;;;4980575;28;20502;-79
2021/12/30 07:54:58;;;;;;;17.50;7.22;;;;;;;;;;4991169;28;20129;-71
2021/12/30 07:57:26;;;;;;;21.98;8.05;;;;;;;;;;4982018;28;20042;-71
2021/12/30 07:59:53;;;;;;;26.17;8.13;;;;;;;;;;4999526;28;20061;-75
2021/12/30 08:02:21;;;;;;;19.38;8.40;;;;;;;;;;4998649;28;20045;-73
2021/12/30 08:04:49;;;;;;;17.17;7.47;;;;;;;;;;4999405;28;20035;-74
2021/12/30 08:07:21;;;;;;;20.30;8.25;;;;;;;;;;4999387;28;20049;-74
2021/12/30 08:09:48;;;;;;;21.52;7.57;;;;;;;;;;4965881;28;20046;-72
2021/12/30 08:12:16;;;;;;;23.33;8.52;;;;;;;;;;4999454;28;20046;-75
2021/12/30 08:14:44;;;;;;;23.90;8.40;;;;;;;;;;4999234;28;20077;-74
2021/12/30 08:17:12;;;;;;;20.08;7.38;;;;;;;;;;4998980;28;20049;-72
2021/12/30 08:19:41;;;;;;;18.83;7.47;;;;;;;;;;4991604;28;20050;-75
2021/12/30 08:22:09;;;;;;;26.13;7.45;;;;;;;;;;4995461;28;20045;-74
2021/12/30 08:24:41;;;;;;;20.65;7.13;;;;;;;;;;4997182;28;20046;-74
2021/12/30 08:27:13;;;;;;;22.27;8.10;;;;;;;;;;4993962;28;20518;-71
2021/12/30 08:29:42;;;;;;;20.63;8.20;;;;;;;;;;4994527;28;20069;-71
2021/12/30 08:32:11;;;;;;;26.25;7.40;;;;;;;;;;4991950;28;20046;-71
2021/12/30 08:34:42;;;;;;;24.10;8.18;;;;;;;;;;4997763;28;20050;-76
2021/12/30 08:37:11;;;;;;;19.73;7.72;;;;;;;;;;4999701;28;20054;-72
2021/12/30 08:39:40;;;;;;;22.33;7.75;;;;;;;;;;4984000;28;20046;-71
2021/12/30 08:42:27;;;;;;;21.15;7.95;;;;;;;;;;4992386;28;20134;-73
2021/12/30 08:44:57;;;;;;;19.77;6.85;;;;;;;;;;4999538;28;20117;-74
2021/12/30 08:47:25;;;;;;;19.35;6.93;;;;;;;;;;4998192;28;20038;-74
2021/12/30 08:49:53;;;;;;;23.10;6.70;;;;;;;;;;4996338;28;20489;-73
2021/12/30 08:52:22;;;;;;;18.42;6.68;;;;;;;;;;4978716;28;20438;-71
2021/12/30 08:54:50;;;;;;;20.55;6.13;;;;;;;;;;4996067;28;20082;-73
2021/12/30 08:57:19;;;;;;;21.20;6.85;;;;;;;;;;4997855;28;20050;-75
2021/12/30 08:59:48;;;;;;;21.65;6.78;;;;;;;;;;5015376;28;20129;-71
2021/12/30 09:02:15;;;;;;;20.80;6.47;;;;;;;;;;5015420;28;20121;-74
2021/12/30 09:04:46;;;;;;;23.17;5.82;;;;;;;;;;5015764;28;20089;-74
2021/12/30 09:07:18;;;;;;;17.17;4.80;;;;;;;;;;5000115;28;20035;-73
2021/12/30 09:09:46;;;;;;;21.35;5.22;;;;;;;;;;4975709;28;20076;-71
2021/12/30 09:12:18;;;;;;;21.55;5.57;;;;;;;;;;4992156;28;20213;-73
2021/12/30 09:15:00;;;;;;;17.60;4.20;;;;;;;;;;4995519;28;20042;-74
2021/12/30 09:17:28;;;;;;;14.15;4.30;;;;;;;;;;4978054;28;20073;-73
2021/12/30 09:19:56;;;;;;;15.07;4.00;;;;;;;;;;4994522;28;20081;-75
2021/12/30 09:22:24;;;;;;;12.95;3.72;;;;;;;;;;4995194;28;20038;-75
2021/12/30 09:24:51;;;;;;;17.63;4.32;;;;;;;;;;4975940;28;20043;-71
2021/12/30 09:27:19;;;;;;;18.20;4.57;;;;;;;;;;4975083;28;20042;-74
2021/12/30 09:29:46;;;;;;;15.50;4.50;;;;;;;;;;4975635;28;20039;-74
2021/12/30 09:32:14;;;;;;;13.95;4.00;;;;;;;;;;4975521;28;20035;-74
2021/12/30 09:34:42;;;;;;;20.17;5.00;;;;;;;;;;4975692;28;20075;-74
2021/12/30 09:37:10;;;;;;;16.17;4.57;;;;;;;;;;4975852;28;20046;-71
2021/12/30 09:39:40;;;;;;;17.30;4.68;;;;;;;;;;4958552;28;20043;-75
2021/12/30 09:42:08;;;;;;;16.88;4.38;;;;;;;;;;4975503;28;20125;-71
2021/12/30 09:44:35;;;;;;;20.58;4.85;;;;;;;;;;4958570;28;20065;-75
2021/12/30 09:47:03;;;;;;;15.75;4.75;;;;;;;;;;4975263;28;20461;-75
2021/12/30 09:49:35;;;;;;;13.30;4.68;;;;;;;;;;4975605;28;20053;-75
2021/12/30 09:52:04;;;;;;;16.10;4.50;;;;;;;;;;4974148;28;20070;-74
2021/12/30 09:54:32;;;;;;;17.17;5.15;;;;;;;;;;4975493;28;20090;-74
2021/12/30 09:56:59;;;;;;;14.95;5.38;;;;;;;;;;4975378;28;20110;-74
2021/12/30 09:59:27;;;;;;;13.60;5.13;;;;;;;;;;4978008;28;20130;-74
2021/12/30 10:01:55;;;;;;;20.90;5.68;;;;;;;;;;4976722;28;20394;-71
2021/12/30 10:04:31;;;;;;;17.55;5.15;;;;;;;;;;4994567;28;20056;-75
2021/12/30 10:06:59;;;;;;;22.45;5.25;;;;;;;;;;4976719;28;20049;-75
2021/12/30 10:09:40;;;;;;;14.10;4.45;;;;;;;;;;4994341;28;20451;-76
2021/12/30 10:12:09;;;;;;;17.50;4.93;;;;;;;;;;4977113;28;20042;-72
2021/12/30 10:14:39;;;;;;;19.98;5.10;;;;;;;;;;4994186;28;20053;-76
2021/12/30 10:17:15;;;;;;;19.35;4.40;;;;;;;;;;4994074;28;20046;-72
2021/12/30 10:19:45;;;;;;;12.63;4.50;;;;;;;;;;4993452;28;20089;-72
2021/12/30 10:22:14;;;;;;;17.67;4.35;;;;;;;;;;4993938;28;20045;-75
2021/12/30 10:24:42;;;;;;;19.60;5.05;;;;;;;;;;4991357;28;20649;-75
2021/12/30 10:27:09;;;;;;;12.98;4.22;;;;;;;;;;4976369;28;20037;-72
2021/12/30 10:29:44;;;;;;;13.82;4.50;;;;;;;;;;4993815;28;20050;-75
2021/12/30 10:32:25;;;;;;;20.70;4.80;;;;;;;;;;4992838;28;20046;-75
2021/12/30 10:35:14;;;;;;;17.55;4.47;;;;;;;;;;4993916;28;20046;-75
2021/12/30 10:37:46;;;;;;;18.10;4.70;;;;;;;;;;4994137;28;20522;-75
2021/12/30 10:40:28;;;;;;;15.83;4.17;;;;;;;;;;4992639;28;20485;-76
2021/12/30 10:43:17;;;;;;;21.42;4.90;;;;;;;;;;5094221;23;20056;-76
2021/12/30 10:46:05;;;;;;;20.00;5.10;;;;;;;;;;5031534;28;20049;-75
2021/12/30 10:48:34;;;;;;;14.88;3.95;;;;;;;;;;5047925;28;20472;-76
2021/12/30 10:51:15;;;;;;;13.75;4.90;;;;;;;;;;5032131;28;20049;-77
2021/12/30 10:53:43;;;;;;;16.35;4.47;;;;;;;;;;5028586;28;20136;-75
2021/12/30 10:56:28;;;;;;;21.85;5.15;;;;;;;;;;5013368;28;20045;-74
2021/12/30 10:59:08;;;;;;;15.73;5.55;;;;;;;;;;5011368;28;20133;-74
2021/12/30 11:01:43;;;;;;;19.02;4.63;;;;;;;;;;5006728;28;20515;-75
2021/12/30 11:04:11;;;;;;;19.50;4.93;;;;;;;;;;5012450;28;20038;-75
2021/12/30 11:06:39;;;;;;;21.20;5.57;;;;;;;;;;5012739;28;20033;-72
2021/12/30 11:09:21;;;;;;;17.60;4.43;;;;;;;;;;5012510;28;20124;-75
2021/12/30 11:11:50;;;;;;;19.50;5.78;;;;;;;;;;5008495;28;20046;-72
2021/12/30 11:14:23;;;;;;;21.88;5.45;;;;;;;;;;4999724;28;20045;-75
2021/12/30 11:16:57;;;;;;;15.30;4.88;;;;;;;;;;5012410;28;20129;-75
2021/12/30 11:19:26;;;;;;;15.35;4.53;;;;;;;;;;5011767;28;20509;-75
2021/12/30 11:21:57;;;;;;;18.75;5.10;;;;;;;;;;5009418;28;20042;-75
2021/12/30 11:24:28;;;;;;;18.08;4.85;;;;;;;;;;5012168;28;20113;-75
2021/12/30 11:26:56;;;;;;;22.52;4.57;;;;;;;;;;5010766;28;20042;-75
2021/12/30 11:29:25;;;;;;;19.75;4.85;;;;;;;;;;5012244;28;20048;-75
2021/12/30 11:31:53;;;;;;;20.98;5.05;;;;;;;;;;5003996;28;20050;-75
2021/12/30 11:34:24;;;;;;;19.85;5.32;;;;;;;;;;5010474;28;20042;-75
2021/12/30 11:36:53;;;;;;;;;;;;;;;;;;5009793;28;20057;-74
2021/12/30 11:39:22;;;;;;;19.10;5.00;;;;;;;;;;5012199;28;19921;-74
2021/12/30 11:41:55;;;;;;;16.27;4.57;;;;;;;;;;4990899;28;20409;-76
2021/12/30 11:44:36;;;;;;;18.45;4.55;;;;;;;;;;4992394;28;20137;-75
2021/12/30 11:47:06;;;;;;;16.40;4.47;;;;;;;;;;4991354;28;20117;-75
2021/12/30 11:50:06;;;;;;;18.50;5.05;;;;;;;;;;4993972;28;20042;-76
2021/12/30 11:52:48;;;;;;;17.25;4.28;;;;;;;;;;4976573;28;20081;-72
2021/12/30 11:55:36;;;;;;;17.17;4.75;;;;;;;;;;5001202;28;20034;-72
2021/12/30 11:58:24;;;;;;;13.93;4.80;;;;;;;;;;5011279;28;20050;-74
2021/12/30 12:00:52;;;;;;;15.05;4.95;;;;;;;;;;4994205;28;20046;-77
2021/12/30 12:03:29;;;;;;;16.77;5.30;;;;;;;;;;5011970;28;20490;-73
2021/12/30 12:05:59;;;;;;;14.93;4.63;;;;;;;;;;5011398;28;20046;-75
2021/12/30 12:08:29;;;;;;;13.90;4.82;;;;;;;;;;4995780;28;20111;-78
2021/12/30 12:11:14;;;;;;;15.95;4.35;;;;;;;;;;5012194;28;20104;-76
2021/12/30 12:13:43;;;;;;;15.25;5.00;;;;;;;;;;5011894;28;20465;-73
2021/12/30 12:16:11;;;;;;;19.08;6.68;;;;;;;;;;5011934;28;20052;-74
2021/12/30 12:18:43;;;;;;;19.83;5.53;;;;;;;;;;5012649;28;20088;-72
2021/12/30 12:21:10;;;;;;;16.67;4.95;;;;;;;;;;5013259;28;20042;-72
2021/12/30 12:23:45;;;;;;;27.73;5.97;;;;;;;;;;5016530;28;20121;-75
2021/12/30 12:26:18;;;;;;;20.58;5.10;;;;;;;;;;5016923;28;20120;-77
2021/12/30 12:28:47;;;;;;;30.60;5.28;;;;;;;;;;5016491;28;20125;-75
2021/12/30 12:31:15;;;;;;;13.40;4.18;;;;;;;;;;5016410;28;20443;-72
2021/12/30 12:33:44;;;;;;;22.23;5.10;;;;;;;;;;5005142;28;20054;-75
2021/12/30 12:36:17;;;;;;;18.15;4.50;;;;;;;;;;5009811;28;20491;-76
2021/12/30 12:38:47;;;;;;;17.23;4.80;;;;;;;;;;5006505;28;20140;-75
2021/12/30 12:41:19;;;;;;;15.43;4.60;;;;;;;;;;5007805;28;20137;-76
2021/12/30 12:43:50;;;;;;;19.70;5.20;;;;;;;;;;5010962;28;20061;-72
2021/12/30 12:46:36;;;;;;;18.95;4.60;;;;;;;;;;5020320;28;20492;-75
2021/12/30 12:49:06;;;;;;;19.83;5.85;;;;;;;;;;5025570;28;20075;-75
2021/12/30 12:51:35;;;;;;;20.48;4.63;;;;;;;;;;5024771;28;20069;-72
2021/12/30 12:54:06;;;;;;;21.33;4.32;;;;;;;;;;5022109;28;20092;-72
2021/12/30 12:56:41;;;;;;;18.15;5.03;;;;;;;;;;5015461;28;20505;-76
2021/12/30 12:59:13;;;;;;;22.33;4.22;;;;;;;;;;4997881;28;20121;-76
2021/12/30 13:01:44;;;;;;;20.02;4.50;;;;;;;;;;4995155;28;20037;-76
2021/12/30 13:04:12;;;;;;;20.00;4.15;;;;;;;;;;5015468;28;20042;-77
2021/12/30 13:06:42;;;;;;;17.98;4.22;;;;;;;;;;5015271;28;20110;-74
2021/12/30 13:09:12;;;;;;;18.83;4.78;;;;;;;;;;4998142;28;20042;-78
2021/12/30 13:11:52;;;;;;;21.77;4.32;;;;;;;;;;4997576;28;20096;-75
2021/12/30 13:14:24;;;;;;;17.98;4.50;;;;;;;;;;5015188;28;20042;-78
2021/12/30 13:16:59;;;;;;;19.05;4.85;;;;;;;;;;5015021;28;20037;-76
2021/12/30 13:19:33;;;;;;;16.27;4.03;;;;;;;;;;5015064;28;20049;-75
2021/12/30 13:22:05;;;;;;;17.17;4.13;;;;;;;;;;5012590;28;20034;-75
2021/12/30 13:24:45;;;;;;;19.63;4.65;;;;;;;;;;5014965;28;20042;-72
2021/12/30 13:27:15;;;;;;;21.13;4.18;;;;;;;;;;5014084;28;20075;-76
2021/12/30 13:30:14;;;;;;;16.10;4.28;;;;;;;;;;4995416;28;20049;-77
2021/12/30 13:32:53;;;;;;;16.13;3.95;;;;;;;;;;4994768;28;20052;-74
2021/12/30 13:35:24;;;;;;;17.60;4.07;;;;;;;;;;5013963;28;20095;-75
2021/12/30 13:37:53;;;;;;;14.93;3.83;;;;;;;;;;4997112;28;20133;-74
2021/12/30 13:40:32;;;;;;;18.63;4.25;;;;;;;;;;5011948;28;20041;-75
2021/12/30 13:43:07;;;;;;;14.10;4.47;;;;;;;;;;5012101;28;20049;-71
2021/12/30 13:45:39;;;;;;;16.20;3.67;;;;;;;;;;5014579;28;20121;-74
2021/12/30 13:48:09;;;;;;;15.75;3.80;;;;;;;;;;4996887;28;20096;-75
2021/12/30 13:50:43;;;;;;;13.35;3.15;;;;;;;;;;5014506;28;20062;-71
2021/12/30 13:53:14;;;;;;;15.07;3.85;;;;;;;;;;5014428;28;20117;-76
2021/12/30 13:55:46;;;;;;;15.30;3.90;;;;;;;;;;4995083;28;20517;-71
2021/12/30 13:58:16;;;;;;;16.90;4.28;;;;;;;;;;5014033;28;20081;-73
2021/12/30 14:00:46;;;;;;;16.13;3.67;;;;;;;;;;5014144;28;20044;-74
2021/12/30 14:03:15;;;;;;;15.68;3.80;;;;;;;;;;4997401;28;20046;-77
2021/12/30 14:05:48;;;;;;;13.40;4.10;;;;;;;;;;5014902;28;20044;-76
2021/12/30 14:08:21;;;;;;;16.77;4.10;;;;;;;;;;4996888;28;20456;-74
2021/12/30 14:10:48;;;;;;;;;;;;;;;;;;5014641;28;20037;-74
2021/12/30 14:13:20;;;;;;;16.75;4.30;;;;;;;;;;4996738;28;20040;-76
2021/12/30 14:15:53;;;;;;;17.10;4.07;;;;;;;;;;4998935;28;20046;-74
2021/12/30 14:18:21;;;;;;;15.85;4.22;;;;;;;;;;4993701;28;20425;-74
2021/12/30 14:20:56;;;;;;;20.58;4.10;;;;;;;;;;4995105;28;20042;-72
2021/12/30 14:23:38;;;;;;;31.23;4.38;;;;;;;;;;4994481;28;20121;-76
2021/12/30 14:26:16;;;;;;;12.57;4.13;;;;;;;;;;4994785;28;20085;-74
2021/12/30 14:29:14;;;;;;;13.82;3.90;;;;;;;;;;4994496;28;20048;-74
2021/12/30 14:31:47;;;;;;;14.20;4.00;;;;;;;;;;4976686;28;20078;-71
2021/12/30 14:34:19;;;;;;;19.02;4.95;;;;;;;;;;5012795;28;20132;-74
2021/12/30 14:36:48;;;;;;;18.20;4.85;;;;;;;;;;5013155;28;20141;-71
2021/12/30 14:39:40;;;;;;;16.05;4.57;;;;;;;;;;5013035;28;20046;-74
2021/12/30 14:42:11;;;;;;;20.67;4.60;;;;;;;;;;4995724;28;20413;-72
2021/12/30 14:44:44;;;;;;;19.35;3.70;;;;;;;;;;4996644;28;20041;-77
2021/12/30 14:47:13;;;;;;;15.88;4.50;;;;;;;;;;4996102;28;20034;-77
2021/12/30 14:50:01;;;;;;;13.85;3.58;;;;;;;;;;4996560;28;20048;-72
2021/12/30 14:52:47;;;;;;;17.27;4.53;;;;;;;;;;5013657;28;20046;-72
2021/12/30 14:55:19;;;;;;;20.25;3.83;;;;;;;;;;5013692;28;20509;-74